Sherman Oaks, California
Current Conditions -  °F | °C
As of 9:51 AM on Saturday 25 Oct 2014 (Local Time) from KVNY Reporting Station
Broken Clouds Broken Clouds  
Wind Chill: 72°   Ceiling: 9000
Heat Index: 72°   Visibility: 10mi
Dew Point: 41°   Wind: 0mph
Humidity: 33%   Direction: NA
Pressure: 30.05"   Gusts: NA
Location:  34.15°N, 118.45°W
Report Text: KVNY 251651Z 00000KT 10SM BKN090 22/05 A3005 RMK AO2 SLP169 T02220050
Loading
Personal Weather Stations






























Interactive Weather Map
Tropical Storm Tracking
New forecast layout! Learn more

10-Day Weather Forecast

Advertisements
Track Severe Weather on mobile